ADDS METAR Data INFO
IDs: Format: Raw Decoded Include TAF

Data at: 1421 UTC 22 Feb 2018

KAWG 221415Z AUTO 05011KT 9SM OVC043 M02/M04 A3051 RMK AO2
KAWG 221355Z AUTO 06011KT 4SM -SN SCT041 BKN055 M02/M04 A3050 RMK AO2
KAWG 221335Z AUTO 07011KT 10SM -UP BKN055 BKN065 M02/M04 A3050 RMK AO2
KAWG 221315Z AUTO 07013G18KT 10SM FEW016 SCT047 OVC060 M02/M05 A3048 RMK AO2
KAWG 221255Z AUTO 08011G19KT 10SM FEW018 SCT044 BKN050 M02/M05 A3049 RMK AO2
KAWG 221235Z AUTO 07015KT 10SM BKN018 OVC060 M02/M05 A3048 RMK AO2
KAWG 221215Z AUTO 06012KT 10SM BKN020 OVC060 M02/M05 A3050 RMK AO2
KAWG 221155Z AUTO 06011KT 10SM SCT022 OVC060 M02/M05 A3051 RMK AO2
KAWG 221135Z AUTO 06012G17KT 10SM FEW050 OVC060 M03/M05 A3050 RMK AO2
KAWG 221115Z AUTO 06010KT 10SM FEW050 OVC060 M03/M05 A3050 RMK AO2
KAWG 221055Z AUTO 05012KT 10SM SCT049 OVC060 M03/M05 A3049 RMK AO2
KAWG 221035Z AUTO 04010KT 10SM OVC065 M03/M05 A3051 RMK AO2
KAWG 221015Z AUTO 04008KT 10SM OVC065 M03/M05 A3051 RMK AO2
KAWG 220955Z AUTO 05010KT 10SM OVC065 M03/M05 A3050 RMK AO2
KAWG 220935Z AUTO 05011KT 10SM OVC070 M03/M05 A3049 RMK AO2
KAWG 220915Z AUTO 05011KT 10SM OVC070 M03/M05 A3050 RMK AO2
KAWG 220855Z AUTO 05010KT 10SM OVC070 M03/M05 A3051 RMK AO2
KAWG 220835Z AUTO 05011KT 10SM OVC070 M03/M05 A3052 RMK AO2
KAWG 220815Z AUTO 06010KT 10SM BKN070 OVC085 M03/M05 A3052 RMK AO2
KAWG 220755Z AUTO 06010KT 10SM SCT070 OVC085 M03/M05 A3053 RMK AO2
KAWG 220735Z AUTO 06011KT 10SM BKN070 OVC090 M03/M05 A3054 RMK AO2
KAWG 220715Z AUTO 06010KT 10SM BKN070 M03/M05 A3054 RMK AO2
KAWG 220655Z AUTO 05009KT 10SM FEW070 M03/M05 A3055 RMK AO2
KAWG 220635Z AUTO 05012KT 10SM FEW110 M03/M05 A3054 RMK AO2
KAWG 220615Z AUTO 04012KT 10SM FEW110 M03/M05 A3055 RMK AO2
KAWG 220555Z AUTO 04012KT 10SM FEW120 M03/M05 A3055 RMK AO2
KAWG 220535Z AUTO 05010KT 10SM FEW110 M03/M05 A3055 RMK AO2
KAWG 220515Z AUTO 04008KT 10SM SCT110 M03/M05 A3057 RMK AO2
KAWG 220455Z AUTO 04009KT 10SM CLR M03/M05 A3056 RMK AO2
KAWG 220435Z AUTO 04009KT 10SM CLR M03/M05 A3057 RMK AO2
KAWG 220415Z AUTO 05010KT 10SM CLR M03/M05 A3058 RMK AO2
KAWG 220355Z AUTO 05008KT 10SM CLR M03/M05 A3059 RMK AO2
KAWG 220035Z AUTO 03010KT 10SM CLR M03/M06 A3062 RMK AO2
KAWG 220015Z AUTO 03010KT 10SM CLR M03/M06 A3062 RMK AO2
KAWG 212355Z AUTO 03010KT 10SM CLR M03/M07 A3062 RMK AO2
KAWG 212335Z AUTO 03010KT 10SM CLR M02/M07 A3062 RMK AO2
KAWG 212315Z AUTO 03008KT 10SM CLR M02/M08 A3061 RMK AO2
KAWG 212255Z AUTO 04009KT 10SM CLR M02/M08 A3062 RMK AO2
KAWG 212235Z AUTO 04009KT 10SM CLR M02/M08 A3061 RMK AO2
KAWG 212215Z AUTO 02009KT 10SM CLR M02/M08 A3060 RMK AO2
KAWG 212155Z AUTO 03009KT 10SM CLR M02/M08 A3061 RMK AO2
KAWG 212135Z AUTO 01009KT 10SM CLR M02/M08 A3061 RMK AO2
KAWG 212115Z AUTO 03010KT 10SM CLR M02/M08 A3059 RMK AO2
KAWG 212055Z AUTO 02009KT 10SM CLR M03/M08 A3059 RMK AO2
KAWG 212035Z AUTO 03010KT 10SM CLR M03/M08 A3060 RMK AO2
KAWG 212015Z AUTO 01009KT 10SM CLR M03/M09 A3061 RMK AO2
KAWG 211955Z AUTO 01009KT 10SM CLR M03/M08 A3062 RMK AO2
KAWG 211935Z AUTO 36006KT 10SM CLR M04/M09 A3063 RMK AO2
KAWG 211915Z AUTO 36009KT 10SM CLR M04/M09 A3063 RMK AO2
KAWG 211855Z AUTO 01010KT 10SM CLR M04/M09 A3063 RMK AO2
KAWG 211835Z AUTO 35008KT 10SM CLR M04/M09 A3063 RMK AO2
KAWG 211815Z AUTO 34010KT 10SM CLR M05/M09 A3064 RMK AO2
KAWG 211755Z AUTO 36010KT 10SM CLR M05/M09 A3064 RMK AO2
KAWG 211735Z AUTO 01010KT 10SM CLR M05/M09 A3063 RMK AO2
KAWG 211715Z AUTO 36010KT 10SM CLR M05/M09 A3063 RMK AO2
KAWG 211655Z AUTO 35009KT 10SM CLR M06/M09 A3063 RMK AO2
KAWG 211635Z AUTO 36012KT 10SM CLR M06/M10 A3062 RMK AO2
KAWG 211615Z AUTO 35010G15KT 10SM CLR M06/M10 A3062 RMK AO2
KAWG 211555Z AUTO 36012KT 10SM CLR M06/M10 A3062 RMK AO2
KAWG 211535Z AUTO 35012KT 10SM CLR M07/M11 A3062 RMK AO2
KAWG 211515Z AUTO 34010KT 10SM CLR M07/M10 A3062 RMK AO2
KAWG 211455Z AUTO 36012G18KT 10SM CLR M07/M10 A3061 RMK AO2
KAWG 211435Z AUTO 34011KT 10SM CLR M07/M10 A3060 RMK AO2
KAWG 211415Z AUTO 34011G17KT 10SM CLR M07/M11 A3060 RMK AO2
KAWG 211355Z AUTO 34011KT 10SM CLR M08/M10 A3060 RMK AO2
KAWG 211335Z AUTO 34012KT 10SM CLR M08/M11 A3059 RMK AO2
KAWG 211315Z AUTO 32012KT 10SM CLR M08/M10 A3058 RMK AO2
KAWG 211255Z AUTO 34011KT CLR M08/M10 A3056 RMK AO2
KAWG 211235Z AUTO 33013KT 10SM CLR M08/M10 A3054 RMK AO2
KAWG 210755Z AUTO 32015KT 10SM FEW018 SCT110 M06/M08 A3041 RMK AO2
KAWG 210735Z AUTO 33018G23KT 10SM FEW019 FEW110 M06/M09 A3040 RMK AO2
KAWG 210715Z AUTO 32015G20KT 10SM FEW018 SCT110 M06/M08 A3038 RMK AO2
KAWG 210655Z AUTO 33015KT 10SM FEW017 BKN110 M06/M08 A3038 RMK AO2
KAWG 210635Z AUTO 33015KT 10SM FEW018 OVC110 M06/M08 A3037 RMK AO2
KAWG 210615Z AUTO 33015KT 10SM FEW019 BKN110 M06/M08 A3036 RMK AO2
KAWG 210555Z AUTO 34014KT 10SM FEW020 M06/M08 A3034 RMK AO2